Time;durP1;ratioP1;P1;durP2;ratioP2;P2;SDS_P1;SDS_P2;PMS_P1;PMS_P2;Temp;Humidity;BMP_temperature;BMP_pressure;BME280_temperature;BME280_humidity;BME280_pressure;Samples;Min_cycle;Max_cycle;Signal;HPM_P1;HPM_P2
2022/12/24 00:00:58;;;;;;;65.90;6.53;;;;;;;;;;5033469;28;20469;-74
2022/12/24 00:03:25;;;;;;;66.70;6.90;;;;;;;;;;5033717;28;20453;-74
2022/12/24 00:05:53;;;;;;;61.93;5.00;;;;;;;;;;5033578;28;20455;-74
2022/12/24 00:08:20;;;;;;;64.23;6.00;;;;;;;;;;5033342;28;20532;-74
2022/12/24 00:10:51;;;;;;;68.90;6.70;;;;;;;;;;5032517;28;20469;-74
2022/12/24 00:13:18;;;;;;;63.13;5.20;;;;;;;;;;5033404;28;20507;-74
2022/12/24 00:15:45;;;;;;;68.73;7.60;;;;;;;;;;5033093;28;20456;-74
2022/12/24 00:18:12;;;;;;;63.53;5.67;;;;;;;;;;5033144;28;20455;-74
2022/12/24 00:20:40;;;;;;;60.50;4.30;;;;;;;;;;5032368;28;20489;-74
2022/12/24 00:23:07;;;;;;;63.27;3.90;;;;;;;;;;5033339;28;20449;-74
2022/12/24 00:25:34;;;;;;;60.83;3.63;;;;;;;;;;5032867;28;20548;-74
2022/12/24 00:28:02;;;;;;;58.80;3.07;;;;;;;;;;5032754;28;20963;-74
2022/12/24 00:30:29;;;;;;;64.53;3.47;;;;;;;;;;5031990;28;20483;-74
2022/12/24 00:32:56;;;;;;;63.23;3.67;;;;;;;;;;5032812;28;20467;-74
2022/12/24 00:35:24;;;;;;;61.80;3.90;;;;;;;;;;5032776;28;20449;-74
2022/12/24 00:37:51;;;;;;;61.40;3.37;;;;;;;;;;5032671;28;20459;-74
2022/12/24 00:40:19;;;;;;;66.97;5.77;;;;;;;;;;5031758;28;20493;-74
2022/12/24 00:42:46;;;;;;;59.20;3.90;;;;;;;;;;5032760;28;20472;-73
2022/12/24 00:45:15;;;;;;;60.10;3.60;;;;;;;;;;5032569;28;20974;-74
2022/12/24 00:47:42;;;;;;;61.80;3.93;;;;;;;;;;5032253;28;21004;-74
2022/12/24 00:50:09;;;;;;;63.40;3.97;;;;;;;;;;5031458;28;20448;-74
2022/12/24 00:52:36;;;;;;;60.10;3.40;;;;;;;;;;5032215;28;20815;-74
2022/12/24 00:55:04;;;;;;;60.97;3.23;;;;;;;;;;5032390;28;20456;-74
2022/12/24 00:57:31;;;;;;;60.23;3.47;;;;;;;;;;5032129;28;20449;-74
2022/12/24 00:59:58;;;;;;;61.60;3.33;;;;;;;;;;5031283;28;20503;-74
2022/12/24 01:02:27;;;;;;;60.50;3.57;;;;;;;;;;5032201;28;20461;-74
2022/12/24 01:05:12;;;;;;;60.77;3.60;;;;;;;;;;5032376;28;20452;-74
2022/12/24 01:07:40;;;;;;;67.10;7.47;;;;;;;;;;5032879;28;20449;-74
2022/12/24 01:10:08;;;;;;;71.87;8.30;;;;;;;;;;5031360;28;20826;-74
2022/12/24 01:12:35;;;;;;;63.83;5.67;;;;;;;;;;5032400;28;20460;-74
2022/12/24 01:15:02;;;;;;;62.20;4.20;;;;;;;;;;5032554;28;20837;-74
2022/12/24 01:17:31;;;;;;;64.70;5.10;;;;;;;;;;5032352;28;20946;-74
2022/12/24 01:19:58;;;;;;;61.37;3.70;;;;;;;;;;5031664;28;20476;-74
2022/12/24 01:22:25;;;;;;;59.47;3.20;;;;;;;;;;5032304;28;21067;-74
2022/12/24 01:24:53;;;;;;;62.00;4.33;;;;;;;;;;5032551;28;20722;-75
2022/12/24 01:27:20;;;;;;;63.13;4.00;;;;;;;;;;5032256;28;20441;-75
2022/12/24 01:29:47;;;;;;;65.00;3.70;;;;;;;;;;5031611;28;20798;-76
2022/12/24 01:32:14;;;;;;;61.93;4.17;;;;;;;;;;5032033;28;20480;-76
2022/12/24 01:34:42;;;;;;;63.40;4.20;;;;;;;;;;5032433;28;20456;-76
2022/12/24 01:37:09;;;;;;;65.00;4.10;;;;;;;;;;5032363;28;20449;-77
2022/12/24 01:39:37;;;;;;;65.87;4.10;;;;;;;;;;5031526;28;20487;-76
2022/12/24 01:44:56;;;;;;;62.27;3.40;;;;;;;;;;5032423;28;20858;-76
2022/12/24 01:47:26;;;;;;;62.90;4.30;;;;;;;;;;5031746;28;20457;-76
2022/12/24 01:49:57;;;;;;;61.67;4.17;;;;;;;;;;5031129;28;20816;-75
2022/12/24 01:52:27;;;;;;;67.03;5.40;;;;;;;;;;5031741;28;20476;-75
2022/12/24 01:54:55;;;;;;;68.50;4.40;;;;;;;;;;5031768;28;20457;-75
2022/12/24 01:57:24;;;;;;;65.67;4.10;;;;;;;;;;5032152;28;20441;-75
2022/12/24 01:59:54;;;;;;;66.10;5.03;;;;;;;;;;5031081;28;20488;-75
2022/12/24 02:02:22;;;;;;;68.70;4.20;;;;;;;;;;5031902;28;20500;-75
2022/12/24 02:04:51;;;;;;;62.53;4.30;;;;;;;;;;5031659;28;20457;-75
2022/12/24 02:07:20;;;;;;;68.50;3.77;;;;;;;;;;5031752;28;20453;-75
2022/12/24 02:09:47;;;;;;;62.23;4.20;;;;;;;;;;5031002;28;20449;-75
2022/12/24 02:12:15;;;;;;;63.70;4.10;;;;;;;;;;5031884;28;20495;-76
2022/12/24 02:14:42;;;;;;;65.70;4.30;;;;;;;;;;5031997;28;20454;-76
2022/12/24 02:17:14;;;;;;;63.30;4.23;;;;;;;;;;5031876;28;20464;-75
2022/12/24 02:19:59;;;;;;;67.57;4.67;;;;;;;;;;5030852;28;20492;-75
2022/12/24 02:22:34;;;;;;;65.53;4.07;;;;;;;;;;5033269;28;20624;-75
2022/12/24 02:25:17;;;;;;;65.53;4.40;;;;;;;;;;5035707;28;20456;-75
2022/12/24 02:27:54;;;;;;;67.97;4.77;;;;;;;;;;5032216;28;20459;-75
2022/12/24 02:30:24;;;;;;;67.23;4.70;;;;;;;;;;5034355;28;20548;-75
2022/12/24 02:33:00;;;;;;;64.70;4.83;;;;;;;;;;5035736;28;20453;-75
2022/12/24 02:35:31;;;;;;;64.87;3.80;;;;;;;;;;5035603;28;20458;-75
2022/12/24 02:38:00;;;;;;;63.23;4.67;;;;;;;;;;5034983;28;20449;-75
2022/12/24 02:40:28;;;;;;;65.07;4.40;;;;;;;;;;5034263;28;20489;-75
2022/12/24 02:42:57;;;;;;;65.07;4.33;;;;;;;;;;5034997;28;20809;-75
2022/12/24 02:45:28;;;;;;;63.80;4.83;;;;;;;;;;5035061;28;20449;-75
2022/12/24 02:47:56;;;;;;;63.40;4.60;;;;;;;;;;5034699;28;20975;-75
2022/12/24 02:50:24;;;;;;;64.63;5.17;;;;;;;;;;5033757;28;20469;-76
2022/12/24 02:52:51;;;;;;;62.90;4.33;;;;;;;;;;5034917;28;20445;-75
2022/12/24 02:55:19;;;;;;;63.97;4.07;;;;;;;;;;5034651;28;20453;-75
2022/12/24 02:58:04;;;;;;;65.20;4.70;;;;;;;;;;5034618;28;20456;-76
2022/12/24 03:00:37;;;;;;;67.07;5.27;;;;;;;;;;5033634;28;20497;-76
2022/12/24 03:03:13;;;;;;;61.97;4.37;;;;;;;;;;5034315;28;20445;-75
2022/12/24 03:05:44;;;;;;;59.37;4.13;;;;;;;;;;5034420;28;20504;-75
2022/12/24 03:08:14;;;;;;;60.60;4.23;;;;;;;;;;5034341;28;20453;-75
2022/12/24 03:10:44;;;;;;;64.63;4.77;;;;;;;;;;5033684;28;20480;-76
2022/12/24 03:13:14;;;;;;;68.17;4.53;;;;;;;;;;5034292;28;20468;-76
2022/12/24 03:15:43;;;;;;;62.00;4.40;;;;;;;;;;5034384;28;20449;-76
2022/12/24 03:18:11;;;;;;;64.23;5.20;;;;;;;;;;5034146;28;20983;-76
2022/12/24 03:20:39;;;;;;;65.53;4.47;;;;;;;;;;5033732;28;20877;-76
2022/12/24 03:23:06;;;;;;;61.90;4.03;;;;;;;;;;5034303;28;20451;-75
2022/12/24 03:25:35;;;;;;;64.57;4.63;;;;;;;;;;5034211;28;20457;-76
2022/12/24 03:28:03;;;;;;;68.27;4.80;;;;;;;;;;5033903;28;20450;-76
2022/12/24 03:30:30;;;;;;;63.20;4.30;;;;;;;;;;5033130;28;20488;-76
2022/12/24 03:32:59;;;;;;;70.47;5.73;;;;;;;;;;5033831;28;20449;-76
2022/12/24 03:35:26;;;;;;;61.10;4.27;;;;;;;;;;5033901;28;20455;-76
2022/12/24 03:37:53;;;;;;;68.67;5.27;;;;;;;;;;5033855;28;20449;-76
2022/12/24 03:40:20;;;;;;;65.47;4.70;;;;;;;;;;5033082;28;20492;-76
2022/12/24 03:42:47;;;;;;;62.87;5.60;;;;;;;;;;5033919;28;20475;-76
2022/12/24 03:45:14;;;;;;;67.13;5.10;;;;;;;;;;5033841;28;20456;-76
2022/12/24 03:47:41;;;;;;;63.33;4.83;;;;;;;;;;5034082;28;20499;-76
2022/12/24 03:50:10;;;;;;;62.97;5.70;;;;;;;;;;5032646;28;20956;-76
2022/12/24 03:52:37;;;;;;;63.10;6.07;;;;;;;;;;5033438;28;20461;-76
2022/12/24 03:55:05;;;;;;;62.37;5.10;;;;;;;;;;5033185;28;20460;-76
2022/12/24 03:57:32;;;;;;;71.17;5.83;;;;;;;;;;5033453;28;20464;-76
2022/12/24 03:59:59;;;;;;;67.97;5.83;;;;;;;;;;5032707;28;20491;-76
2022/12/24 04:02:26;;;;;;;65.30;5.90;;;;;;;;;;5033361;28;20449;-76
2022/12/24 04:04:53;;;;;;;62.30;4.50;;;;;;;;;;5033255;28;20479;-76
2022/12/24 04:07:21;;;;;;;65.83;5.47;;;;;;;;;;5033303;28;20453;-76
2022/12/24 04:09:49;;;;;;;61.40;4.30;;;;;;;;;;5032203;28;20455;-76
2022/12/24 04:12:16;;;;;;;67.27;5.60;;;;;;;;;;5033203;28;20473;-76
2022/12/24 04:14:43;;;;;;;63.40;5.10;;;;;;;;;;5033136;28;20832;-76
2022/12/24 04:17:10;;;;;;;64.00;4.30;;;;;;;;;;5033082;28;20457;-76
2022/12/24 04:19:37;;;;;;;62.97;4.53;;;;;;;;;;5031993;28;20449;-76
2022/12/24 04:22:04;;;;;;;61.37;5.00;;;;;;;;;;5032718;28;20480;-76
2022/12/24 04:24:32;;;;;;;62.03;4.53;;;;;;;;;;5032941;28;20520;-76
2022/12/24 04:27:00;;;;;;;67.77;4.50;;;;;;;;;;5032959;28;20826;-76
2022/12/24 04:29:27;;;;;;;64.77;4.60;;;;;;;;;;5032148;28;20452;-76
2022/12/24 04:31:54;;;;;;;63.30;4.73;;;;;;;;;;5032534;28;21004;-76
2022/12/24 04:34:21;;;;;;;62.47;4.00;;;;;;;;;;5032698;28;20455;-76
2022/12/24 04:36:48;;;;;;;66.03;4.40;;;;;;;;;;5032722;28;20636;-76
2022/12/24 04:39:15;;;;;;;67.90;5.43;;;;;;;;;;5031889;28;20453;-76
2022/12/24 04:41:43;;;;;;;63.03;4.73;;;;;;;;;;5032505;28;20515;-76
2022/12/24 04:44:11;;;;;;;60.93;4.40;;;;;;;;;;5032187;28;20453;-76
2022/12/24 04:46:38;;;;;;;64.77;5.50;;;;;;;;;;5048482;28;20444;-76
2022/12/24 04:49:06;;;;;;;63.47;4.90;;;;;;;;;;5051302;28;20859;-76
2022/12/24 04:51:33;;;;;;;67.33;4.73;;;;;;;;;;5051668;28;20498;-76
2022/12/24 04:54:00;;;;;;;66.37;7.93;;;;;;;;;;5052365;28;20840;-76
2022/12/24 04:56:28;;;;;;;63.80;5.37;;;;;;;;;;5052382;28;20452;-76
2022/12/24 04:58:57;;;;;;;68.60;5.50;;;;;;;;;;5051675;28;20448;-75
2022/12/24 05:01:25;;;;;;;62.60;5.83;;;;;;;;;;5051914;28;20496;-76
2022/12/24 05:03:52;;;;;;;66.70;5.93;;;;;;;;;;5051928;28;20449;-75
2022/12/24 05:06:20;;;;;;;63.23;5.47;;;;;;;;;;5052178;28;20456;-75
2022/12/24 05:08:47;;;;;;;66.77;5.00;;;;;;;;;;5051280;28;20448;-75
2022/12/24 05:11:15;;;;;;;62.60;4.73;;;;;;;;;;5051967;28;20460;-76
2022/12/24 05:13:42;;;;;;;64.20;4.90;;;;;;;;;;5052011;28;20506;-76
2022/12/24 05:16:11;;;;;;;66.87;4.90;;;;;;;;;;5052322;28;20510;-75
2022/12/24 05:18:38;;;;;;;60.77;4.13;;;;;;;;;;5051037;28;20449;-75
2022/12/24 05:21:08;;;;;;;63.33;5.10;;;;;;;;;;5051838;28;20502;-75
2022/12/24 05:26:24;;;;;;;66.90;5.53;;;;;;;;;;5051932;28;20478;-75
2022/12/24 05:28:51;;;;;;;67.57;6.00;;;;;;;;;;5051099;28;20448;-76
2022/12/24 05:31:20;;;;;;;66.37;5.40;;;;;;;;;;5051488;28;20484;-76
2022/12/24 05:33:47;;;;;;;62.17;4.90;;;;;;;;;;5051836;28;20460;-76
2022/12/24 05:36:15;;;;;;;64.70;5.27;;;;;;;;;;5051918;28;20455;-75
2022/12/24 05:38:42;;;;;;;70.40;4.80;;;;;;;;;;5051046;28;20847;-76
2022/12/24 05:41:09;;;;;;;63.13;5.60;;;;;;;;;;5051721;28;20492;-75
2022/12/24 05:43:37;;;;;;;61.50;4.80;;;;;;;;;;5051706;28;20811;-76
2022/12/24 05:46:04;;;;;;;70.60;5.93;;;;;;;;;;5051829;28;20444;-76
2022/12/24 05:48:33;;;;;;;60.10;4.40;;;;;;;;;;5051655;28;20454;-74
2022/12/24 05:51:03;;;;;;;61.70;4.93;;;;;;;;;;5051231;28;20472;-75
2022/12/24 05:53:31;;;;;;;66.30;5.37;;;;;;;;;;5051504;28;20450;-75
2022/12/24 05:56:03;;;;;;;72.10;5.67;;;;;;;;;;5052277;28;20448;-76
2022/12/24 05:58:30;;;;;;;64.17;5.13;;;;;;;;;;5055219;28;20452;-75
2022/12/24 06:00:57;;;;;;;62.53;5.03;;;;;;;;;;5055317;28;20510;-75
2022/12/24 06:03:24;;;;;;;65.87;4.90;;;;;;;;;;5055508;28;20844;-75
2022/12/24 06:05:59;;;;;;;63.50;4.63;;;;;;;;;;5055380;28;20455;-75
2022/12/24 06:08:26;;;;;;;62.57;5.67;;;;;;;;;;5055149;28;20448;-75
2022/12/24 06:10:55;;;;;;;66.50;4.47;;;;;;;;;;5055107;28;20460;-75
2022/12/24 06:13:22;;;;;;;63.47;4.27;;;;;;;;;;5055193;28;20448;-75
2022/12/24 06:15:49;;;;;;;68.67;5.37;;;;;;;;;;5055486;28;20452;-75
2022/12/24 06:18:16;;;;;;;63.57;4.40;;;;;;;;;;5054984;28;20484;-75
2022/12/24 06:20:43;;;;;;;67.90;5.10;;;;;;;;;;5054123;28;21032;-75
2022/12/24 06:23:11;;;;;;;64.07;4.43;;;;;;;;;;5054932;28;20464;-75
2022/12/24 06:25:38;;;;;;;75.20;5.20;;;;;;;;;;5055204;28;20447;-75
2022/12/24 06:28:05;;;;;;;68.40;4.77;;;;;;;;;;5055189;28;20444;-75
2022/12/24 06:30:33;;;;;;;69.33;5.33;;;;;;;;;;5054124;28;20488;-75
2022/12/24 06:33:01;;;;;;;67.17;4.70;;;;;;;;;;5055037;28;20538;-76
2022/12/24 06:35:28;;;;;;;65.43;4.43;;;;;;;;;;5054775;28;20449;-75
2022/12/24 06:37:55;;;;;;;64.77;5.47;;;;;;;;;;5054966;28;20794;-75
2022/12/24 06:40:23;;;;;;;65.03;5.20;;;;;;;;;;5053960;28;20468;-75
2022/12/24 06:42:50;;;;;;;67.30;5.30;;;;;;;;;;5054677;28;20952;-76
2022/12/24 06:45:18;;;;;;;66.90;4.50;;;;;;;;;;5054707;28;20451;-76
2022/12/24 06:47:45;;;;;;;62.57;4.70;;;;;;;;;;5054682;28;20456;-76
2022/12/24 06:50:12;;;;;;;74.90;4.97;;;;;;;;;;5053759;28;20448;-76
2022/12/24 06:52:39;;;;;;;64.83;4.50;;;;;;;;;;5054704;28;20451;-75
2022/12/24 06:55:07;;;;;;;65.20;5.07;;;;;;;;;;5054630;28;20440;-75
2022/12/24 06:57:35;;;;;;;63.30;3.90;;;;;;;;;;5054517;28;20452;-75
2022/12/24 07:00:02;;;;;;;63.40;5.20;;;;;;;;;;5053500;28;20444;-75
2022/12/24 07:02:29;;;;;;;63.30;4.30;;;;;;;;;;5054199;28;20492;-75
2022/12/24 07:04:57;;;;;;;61.90;4.13;;;;;;;;;;5054110;28;20452;-75
2022/12/24 07:07:24;;;;;;;64.00;3.80;;;;;;;;;;5053882;28;20821;-75
2022/12/24 07:09:51;;;;;;;62.43;3.90;;;;;;;;;;5053522;28;20550;-75
2022/12/24 07:12:18;;;;;;;62.77;4.30;;;;;;;;;;5054137;28;20463;-75
2022/12/24 07:14:46;;;;;;;67.43;5.43;;;;;;;;;;5054183;28;20448;-75
2022/12/24 07:17:13;;;;;;;64.70;4.63;;;;;;;;;;5054035;28;20462;-75
2022/12/24 07:19:40;;;;;;;69.00;4.87;;;;;;;;;;5053314;28;20454;-75
2022/12/24 07:22:07;;;;;;;61.90;4.73;;;;;;;;;;5054012;28;20498;-75
2022/12/24 07:24:35;;;;;;;60.70;4.23;;;;;;;;;;5053986;28;20456;-75
2022/12/24 07:27:02;;;;;;;71.60;4.20;;;;;;;;;;5053992;28;20826;-75
2022/12/24 07:29:29;;;;;;;62.90;4.73;;;;;;;;;;5053192;28;20456;-75
2022/12/24 07:31:57;;;;;;;61.67;4.10;;;;;;;;;;5053714;28;20493;-75
2022/12/24 07:34:24;;;;;;;60.07;3.70;;;;;;;;;;5053596;28;20452;-75
2022/12/24 07:36:51;;;;;;;64.00;3.63;;;;;;;;;;5053871;28;20448;-75
2022/12/24 07:39:19;;;;;;;64.53;4.83;;;;;;;;;;5053067;28;20456;-76
2022/12/24 07:41:46;;;;;;;62.20;4.90;;;;;;;;;;5053398;28;20492;-76
2022/12/24 07:44:13;;;;;;;63.13;3.90;;;;;;;;;;5053591;28;20449;-76
2022/12/24 07:46:40;;;;;;;65.33;4.50;;;;;;;;;;5053833;28;20448;-75
2022/12/24 07:49:09;;;;;;;65.30;4.23;;;;;;;;;;5052372;28;20949;-75
2022/12/24 07:51:36;;;;;;;62.87;4.60;;;;;;;;;;5053442;28;20526;-75
2022/12/24 07:54:03;;;;;;;67.10;4.50;;;;;;;;;;5053354;28;20945;-75
2022/12/24 07:56:30;;;;;;;62.57;5.33;;;;;;;;;;5053334;28;20452;-75
2022/12/24 07:58:58;;;;;;;62.40;4.67;;;;;;;;;;5052452;28;20455;-75
2022/12/24 08:01:25;;;;;;;65.90;4.77;;;;;;;;;;5053344;28;20496;-75
2022/12/24 08:03:53;;;;;;;60.53;3.97;;;;;;;;;;5053231;28;20838;-75
2022/12/24 08:06:21;;;;;;;65.70;4.80;;;;;;;;;;5053452;28;20514;-75
2022/12/24 08:08:49;;;;;;;62.87;4.30;;;;;;;;;;5052313;28;20478;-75
2022/12/24 08:11:16;;;;;;;67.80;3.90;;;;;;;;;;5053119;28;20548;-75
2022/12/24 08:13:43;;;;;;;64.23;4.77;;;;;;;;;;5052972;28;20462;-75
2022/12/24 08:16:10;;;;;;;62.63;4.70;;;;;;;;;;5053204;28;20457;-75
2022/12/24 08:18:37;;;;;;;67.40;4.40;;;;;;;;;;5052051;28;20460;-75
2022/12/24 08:21:07;;;;;;;61.77;3.77;;;;;;;;;;5051933;28;20468;-75
2022/12/24 08:23:35;;;;;;;62.47;4.30;;;;;;;;;;5052757;28;21047;-75
2022/12/24 08:26:03;;;;;;;63.77;5.33;;;;;;;;;;5052685;28;20480;-75
2022/12/24 08:28:30;;;;;;;65.90;4.93;;;;;;;;;;5052675;28;20863;-75
2022/12/24 08:30:57;;;;;;;62.80;4.80;;;;;;;;;;5052270;28;20498;-75
2022/12/24 08:33:24;;;;;;;64.60;4.87;;;;;;;;;;5052700;28;20455;-75
2022/12/24 08:35:53;;;;;;;64.77;5.63;;;;;;;;;;5052525;28;20462;-75
2022/12/24 08:38:20;;;;;;;60.20;4.17;;;;;;;;;;5052475;28;20954;-75
2022/12/24 08:40:49;;;;;;;67.13;4.40;;;;;;;;;;5051705;28;20483;-75
2022/12/24 08:43:16;;;;;;;66.23;5.53;;;;;;;;;;5052388;28;20488;-75
2022/12/24 08:45:43;;;;;;;71.77;5.57;;;;;;;;;;5052680;28;20447;-75
2022/12/24 08:48:11;;;;;;;66.17;5.40;;;;;;;;;;5052307;28;20474;-75
2022/12/24 08:50:39;;;;;;;70.20;5.23;;;;;;;;;;5051594;28;20818;-74
2022/12/24 08:53:06;;;;;;;63.90;4.47;;;;;;;;;;5052262;28;20971;-75
2022/12/24 08:55:33;;;;;;;62.60;4.87;;;;;;;;;;5052411;28;20447;-74
2022/12/24 08:58:02;;;;;;;68.13;4.93;;;;;;;;;;5052128;28;20976;-75
2022/12/24 09:00:29;;;;;;;64.70;4.80;;;;;;;;;;5051299;28;21033;-74
2022/12/24 09:02:57;;;;;;;65.17;4.60;;;;;;;;;;5051876;28;20559;-75
2022/12/24 09:05:24;;;;;;;66.50;4.47;;;;;;;;;;5052171;28;20945;-74
2022/12/24 09:07:51;;;;;;;69.83;5.10;;;;;;;;;;5052222;28;20513;-74
2022/12/24 09:10:19;;;;;;;64.43;5.20;;;;;;;;;;5051380;28;20480;-75
2022/12/24 09:12:46;;;;;;;69.37;4.60;;;;;;;;;;5052054;28;20444;-75
2022/12/24 09:15:15;;;;;;;62.97;4.20;;;;;;;;;;5051851;28;20452;-74
2022/12/24 09:17:42;;;;;;;64.27;4.90;;;;;;;;;;5051973;28;20457;-74
2022/12/24 09:20:10;;;;;;;71.73;4.80;;;;;;;;;;5050907;28;20456;-74
2022/12/24 09:22:38;;;;;;;64.80;4.50;;;;;;;;;;5051999;28;20515;-74
2022/12/24 09:25:06;;;;;;;65.60;4.40;;;;;;;;;;5051833;28;20453;-74
2022/12/24 09:27:33;;;;;;;67.03;4.20;;;;;;;;;;5052075;28;20477;-74
2022/12/24 09:30:00;;;;;;;62.33;4.90;;;;;;;;;;5050929;28;20448;-74
2022/12/24 09:32:28;;;;;;;66.93;4.20;;;;;;;;;;5051173;28;20468;-74
2022/12/24 09:34:56;;;;;;;68.40;4.70;;;;;;;;;;5051920;28;20631;-74
2022/12/24 09:37:23;;;;;;;69.90;3.90;;;;;;;;;;5051875;28;20543;-74
2022/12/24 09:39:50;;;;;;;62.60;3.97;;;;;;;;;;5050905;28;20448;-74
2022/12/24 09:42:24;;;;;;;70.13;4.97;;;;;;;;;;5051476;28;20867;-74
2022/12/24 09:44:54;;;;;;;86.03;5.80;;;;;;;;;;5051854;28;20451;-74
2022/12/24 09:47:24;;;;;;;66.50;5.07;;;;;;;;;;5051553;28;20452;-74
2022/12/24 09:49:54;;;;;;;67.77;4.97;;;;;;;;;;5050732;28;20453;-74
2022/12/24 09:52:26;;;;;;;65.93;4.63;;;;;;;;;;5051202;28;20504;-74
2022/12/24 09:54:57;;;;;;;63.13;4.47;;;;;;;;;;5051508;28;20955;-74
2022/12/24 09:57:29;;;;;;;68.60;4.37;;;;;;;;;;5051542;28;20452;-75
2022/12/24 09:59:56;;;;;;;64.30;4.50;;;;;;;;;;5050857;28;20475;-74
2022/12/24 10:02:23;;;;;;;66.80;5.37;;;;;;;;;;5051466;28;20488;-74
2022/12/24 10:04:50;;;;;;;69.37;4.40;;;;;;;;;;5051349;28;20944;-74
2022/12/24 10:07:28;;;;;;;68.70;5.77;;;;;;;;;;5051501;28;20451;-74
2022/12/24 10:10:01;;;;;;;62.57;4.80;;;;;;;;;;5050638;28;20444;-75
2022/12/24 10:12:32;;;;;;;64.63;5.60;;;;;;;;;;5051574;28;20445;-75
2022/12/24 10:15:03;;;;;;;64.10;4.73;;;;;;;;;;5051623;28;20444;-75
2022/12/24 10:17:37;;;;;;;66.90;5.53;;;;;;;;;;5051482;28;20452;-75
2022/12/24 10:20:15;;;;;;;61.97;4.70;;;;;;;;;;5050473;28;20457;-75
2022/12/24 10:22:47;;;;;;;61.00;4.60;;;;;;;;;;5051061;28;20549;-75
2022/12/24 10:25:18;;;;;;;65.83;4.60;;;;;;;;;;5051255;28;20459;-75
2022/12/24 10:27:46;;;;;;;65.23;4.57;;;;;;;;;;5051186;28;20970;-75
2022/12/24 10:30:15;;;;;;;63.30;4.63;;;;;;;;;;5050297;28;20538;-75
2022/12/24 10:32:42;;;;;;;63.80;4.90;;;;;;;;;;5051274;28;20451;-75
2022/12/24 10:35:19;;;;;;;65.40;4.87;;;;;;;;;;5050989;28;20588;-75
2022/12/24 10:37:49;;;;;;;64.43;5.30;;;;;;;;;;5052850;28;20448;-75
2022/12/24 10:40:19;;;;;;;67.80;5.27;;;;;;;;;;5048762;28;20518;-75
2022/12/24 10:42:46;;;;;;;65.20;4.50;;;;;;;;;;5050337;28;21012;-75
2022/12/24 10:45:15;;;;;;;63.83;4.37;;;;;;;;;;5054181;28;20463;-75
2022/12/24 10:47:43;;;;;;;62.10;4.30;;;;;;;;;;5054338;28;20936;-76
2022/12/24 10:50:13;;;;;;;67.47;5.00;;;;;;;;;;5053213;28;20449;-75
2022/12/24 10:52:42;;;;;;;65.47;4.73;;;;;;;;;;5054277;28;20483;-75
2022/12/24 10:55:12;;;;;;;63.80;4.20;;;;;;;;;;5054602;28;20484;-74
2022/12/24 10:57:40;;;;;;;69.70;4.57;;;;;;;;;;5054553;28;20501;-75
2022/12/24 11:00:18;;;;;;;65.70;5.43;;;;;;;;;;5053336;28;21023;-74
2022/12/24 11:02:47;;;;;;;63.50;4.10;;;;;;;;;;5054554;28;20878;-75
2022/12/24 11:05:28;;;;;;;65.60;4.90;;;;;;;;;;5054277;28;20444;-75
2022/12/24 11:08:00;;;;;;;64.70;4.43;;;;;;;;;;5054270;28;20949;-75
2022/12/24 11:10:28;;;;;;;63.90;4.83;;;;;;;;;;5053309;28;20473;-75
2022/12/24 11:12:55;;;;;;;68.40;4.63;;;;;;;;;;5054446;28;20450;-74
2022/12/24 11:15:24;;;;;;;67.50;5.20;;;;;;;;;;5054257;28;20452;-75
2022/12/24 11:17:54;;;;;;;66.80;4.80;;;;;;;;;;5054089;28;20452;-75
2022/12/24 11:20:24;;;;;;;65.20;4.63;;;;;;;;;;5053194;28;20464;-74
2022/12/24 11:22:52;;;;;;;64.40;5.20;;;;;;;;;;5054110;28;20490;-74
2022/12/24 11:25:21;;;;;;;61.77;4.30;;;;;;;;;;5053792;28;20450;-75
2022/12/24 11:27:50;;;;;;;63.27;4.10;;;;;;;;;;5053816;28;20519;-75
2022/12/24 11:30:23;;;;;;;63.40;4.40;;;;;;;;;;5052733;28;20491;-75
2022/12/24 11:32:51;;;;;;;67.33;4.57;;;;;;;;;;5054458;28;20800;-75
2022/12/24 11:35:20;;;;;;;63.37;4.40;;;;;;;;;;5053692;28;20945;-74
2022/12/24 11:37:47;;;;;;;64.50;4.80;;;;;;;;;;5053646;28;20439;-75
2022/12/24 11:40:21;;;;;;;64.70;4.50;;;;;;;;;;5053127;28;20454;-75
2022/12/24 11:42:52;;;;;;;63.50;4.60;;;;;;;;;;5053677;28;20487;-74
2022/12/24 11:45:23;;;;;;;60.77;5.00;;;;;;;;;;5053848;28;20816;-75
2022/12/24 11:47:50;;;;;;;65.67;4.33;;;;;;;;;;5053477;28;20548;-75
2022/12/24 11:50:22;;;;;;;67.73;5.20;;;;;;;;;;5052651;28;20455;-75
2022/12/24 11:52:50;;;;;;;65.80;5.87;;;;;;;;;;5053456;28;20944;-75
2022/12/24 11:55:19;;;;;;;64.30;4.70;;;;;;;;;;5053313;28;20983;-75
2022/12/24 11:57:50;;;;;;;68.80;4.97;;;;;;;;;;5053273;28;20456;-75
2022/12/24 12:00:19;;;;;;;65.30;4.90;;;;;;;;;;5052507;28;20456;-75
2022/12/24 12:02:48;;;;;;;68.47;5.73;;;;;;;;;;5053113;28;21005;-75
2022/12/24 12:05:18;;;;;;;69.47;5.93;;;;;;;;;;5053178;28;20452;-75
2022/12/24 12:07:47;;;;;;;69.20;5.97;;;;;;;;;;5053277;28;21023;-75
2022/12/24 12:10:17;;;;;;;67.10;4.97;;;;;;;;;;5052484;28;20739;-74
2022/12/24 12:12:46;;;;;;;68.40;5.20;;;;;;;;;;5052913;28;20885;-75
2022/12/24 12:15:15;;;;;;;64.90;5.20;;;;;;;;;;5052912;28;20970;-75
2022/12/24 12:17:45;;;;;;;66.00;5.70;;;;;;;;;;5053276;28;20448;-75
2022/12/24 12:20:14;;;;;;;63.07;4.90;;;;;;;;;;5052154;28;20448;-75
2022/12/24 12:22:46;;;;;;;67.57;5.50;;;;;;;;;;5053179;28;20480;-75
2022/12/24 12:25:20;;;;;;;64.27;5.73;;;;;;;;;;5052912;28;20452;-75
2022/12/24 12:27:48;;;;;;;65.20;5.57;;;;;;;;;;5052651;28;20597;-75
2022/12/24 12:30:16;;;;;;;65.77;5.40;;;;;;;;;;5051947;28;20444;-75
2022/12/24 12:32:47;;;;;;;61.50;5.10;;;;;;;;;;5052848;28;20450;-75
2022/12/24 12:35:17;;;;;;;69.90;5.47;;;;;;;;;;5052701;28;20539;-75
2022/12/24 12:37:46;;;;;;;68.67;6.87;;;;;;;;;;5052818;28;20883;-75
2022/12/24 12:40:14;;;;;;;68.13;5.93;;;;;;;;;;5051662;28;20452;-75
2022/12/24 12:42:45;;;;;;;66.73;5.80;;;;;;;;;;5052487;28;20487;-75
2022/12/24 12:45:18;;;;;;;67.50;6.30;;;;;;;;;;5052643;28;20456;-75
2022/12/24 12:47:54;;;;;;;67.97;5.47;;;;;;;;;;5052619;28;20448;-75
2022/12/24 12:50:24;;;;;;;63.53;5.40;;;;;;;;;;5051488;28;20468;-75
2022/12/24 12:52:58;;;;;;;65.77;5.70;;;;;;;;;;5052925;28;20450;-75
2022/12/24 12:55:32;;;;;;;81.60;6.50;;;;;;;;;;5052520;28;20455;-75
2022/12/24 12:58:01;;;;;;;66.13;6.40;;;;;;;;;;5052283;28;20801;-75
2022/12/24 13:00:31;;;;;;;67.10;5.70;;;;;;;;;;5051593;28;20477;-75
2022/12/24 13:03:14;;;;;;;66.37;5.80;;;;;;;;;;5052247;28;20485;-75
2022/12/24 13:05:51;;;;;;;67.00;6.10;;;;;;;;;;5051887;28;20462;-75
2022/12/24 13:08:32;;;;;;;69.70;6.13;;;;;;;;;;5052198;28;20809;-74
2022/12/24 13:11:07;;;;;;;74.20;6.50;;;;;;;;;;5052185;28;20495;-75
2022/12/24 13:13:55;;;;;;;66.27;6.20;;;;;;;;;;5051926;28;20448;-75
2022/12/24 13:16:32;;;;;;;71.43;6.40;;;;;;;;;;5052312;28;20459;-74
2022/12/24 13:19:06;;;;;;;70.40;6.13;;;;;;;;;;5051246;28;20462;-75
2022/12/24 13:21:33;;;;;;;74.30;6.07;;;;;;;;;;5052187;28;20495;-75
2022/12/24 13:24:08;;;;;;;66.83;6.00;;;;;;;;;;5051832;28;20487;-75
2022/12/24 13:26:36;;;;;;;69.47;6.93;;;;;;;;;;5052024;28;20452;-75
2022/12/24 13:29:18;;;;;;;72.70;6.33;;;;;;;;;;5051122;28;20806;-75
2022/12/24 13:31:45;;;;;;;65.37;5.27;;;;;;;;;;5048900;28;20487;-75
2022/12/24 13:34:33;;;;;;;68.70;6.73;;;;;;;;;;5051617;28;20448;-75
2022/12/24 13:37:02;;;;;;;68.67;6.53;;;;;;;;;;5051877;28;20440;-75
2022/12/24 13:39:29;;;;;;;65.33;6.00;;;;;;;;;;5051263;28;20440;-75
2022/12/24 13:41:56;;;;;;;70.60;6.53;;;;;;;;;;5051688;28;20468;-75
2022/12/24 13:44:24;;;;;;;67.93;7.27;;;;;;;;;;5051678;28;20487;-75
2022/12/24 13:46:57;;;;;;;69.10;5.80;;;;;;;;;;5051541;28;20531;-75
2022/12/24 13:49:32;;;;;;;67.80;5.23;;;;;;;;;;5050817;28;20829;-75
2022/12/24 13:52:06;;;;;;;72.17;5.63;;;;;;;;;;5051619;28;20562;-75
2022/12/24 13:54:34;;;;;;;64.60;5.60;;;;;;;;;;5051464;28;20960;-75
2022/12/24 13:57:01;;;;;;;73.40;8.50;;;;;;;;;;5051544;28;20549;-75
2022/12/24 13:59:35;;;;;;;73.63;11.63;;;;;;;;;;5050664;28;20456;-75
2022/12/24 14:02:03;;;;;;;69.53;9.03;;;;;;;;;;5051506;28;20554;-75
2022/12/24 14:04:33;;;;;;;66.97;7.47;;;;;;;;;;5051382;28;20495;-75
2022/12/24 14:07:02;;;;;;;71.67;7.10;;;;;;;;;;5051496;28;20459;-75
2022/12/24 14:09:29;;;;;;;74.17;6.67;;;;;;;;;;5050604;28;20510;-75
2022/12/24 14:12:29;;;;;;;71.33;8.07;;;;;;;;;;5051137;28;20468;-75
2022/12/24 14:14:56;;;;;;;72.43;7.87;;;;;;;;;;5051263;28;20960;-75
2022/12/24 14:17:25;;;;;;;67.23;6.40;;;;;;;;;;5053008;28;20450;-75
2022/12/24 14:19:54;;;;;;;68.70;5.30;;;;;;;;;;5054449;28;20826;-75
2022/12/24 14:22:27;;;;;;;67.40;6.20;;;;;;;;;;5054929;28;20964;-75
2022/12/24 14:24:56;;;;;;;64.20;5.83;;;;;;;;;;5055167;28;20483;-75
2022/12/24 14:27:25;;;;;;;70.47;6.53;;;;;;;;;;5055270;28;20444;-75
2022/12/24 14:29:55;;;;;;;65.17;6.30;;;;;;;;;;5054242;28;20452;-74
2022/12/24 14:32:22;;;;;;;75.07;7.60;;;;;;;;;;5054920;28;21010;-75
2022/12/24 14:35:04;;;;;;;69.03;7.30;;;;;;;;;;5054784;28;20444;-75
2022/12/24 14:37:33;;;;;;;73.10;6.70;;;;;;;;;;5055173;28;20470;-75
2022/12/24 14:40:00;;;;;;;68.63;6.90;;;;;;;;;;5053834;28;20948;-75
2022/12/24 14:42:33;;;;;;;73.13;7.23;;;;;;;;;;5054767;28;20450;-75
2022/12/24 14:45:03;;;;;;;63.03;5.83;;;;;;;;;;5054514;28;20488;-75
2022/12/24 14:47:36;;;;;;;69.93;6.30;;;;;;;;;;5054877;28;20474;-76